sensor_id;sensor_type;location;lat;lon;timestamp;noise_LAeq;noise_LA_min;noise_LA_max;noise_LA01;noise_LA95
67320;Laerm;57665;51.436;5.978;2023-08-06T00:00:00;37.74;36.76;38.61;;
67320;Laerm;57665;51.436;5.978;2023-08-06T00:00:10;38.82;36.51;44.14;;
67320;Laerm;57665;51.436;5.978;2023-08-06T00:00:21;38.77;37.28;42.10;;
67320;Laerm;57665;51.436;5.978;2023-08-06T00:00:31;37.76;36.54;38.63;;
67320;Laerm;57665;51.436;5.978;2023-08-06T00:00:42;37.79;36.73;39.09;;
67320;Laerm;57665;51.436;5.978;2023-08-06T00:00:52;37.73;36.56;38.84;;
67320;Laerm;57665;51.436;5.978;2023-08-06T00:01:02;37.65;36.70;38.72;;
67320;Laerm;57665;51.436;5.978;2023-08-06T00:01:13;37.72;36.35;41.76;;
67320;Laerm;57665;51.436;5.978;2023-08-06T00:01:23;37.82;36.82;40.12;;
67320;Laerm;57665;51.436;5.978;2023-08-06T00:01:38;37.75;36.59;38.85;;
67320;Laerm;57665;51.436;5.978;2023-08-06T00:01:49;37.69;36.73;38.66;;
67320;Laerm;57665;51.436;5.978;2023-08-06T00:02:05;37.72;36.34;38.40;;
67320;Laerm;57665;51.436;5.978;2023-08-06T00:02:15;37.72;36.81;38.71;;
67320;Laerm;57665;51.436;5.978;2023-08-06T00:02:25;37.68;36.67;38.56;;
67320;Laerm;57665;51.436;5.978;2023-08-06T00:02:48;37.73;36.69;38.93;;
67320;Laerm;57665;51.436;5.978;2023-08-06T00:02:59;37.71;36.68;38.99;;
67320;Laerm;57665;51.436;5.978;2023-08-06T00:03:15;37.67;36.82;39.00;;
67320;Laerm;57665;51.436;5.978;2023-08-06T00:03:25;37.87;36.71;39.37;;
67320;Laerm;57665;51.436;5.978;2023-08-06T00:03:35;38.87;36.80;42.92;;
67320;Laerm;57665;51.436;5.978;2023-08-06T00:03:46;38.39;36.89;42.40;;
67320;Laerm;57665;51.436;5.978;2023-08-06T00:03:56;39.68;37.60;42.25;;
67320;Laerm;57665;51.436;5.978;2023-08-06T00:04:15;38.49;36.96;39.75;;
67320;Laerm;57665;51.436;5.978;2023-08-06T00:04:25;37.73;36.41;38.87;;
67320;Laerm;57665;51.436;5.978;2023-08-06T00:04:35;37.65;36.56;38.60;;
67320;Laerm;57665;51.436;5.978;2023-08-06T00:04:46;37.75;36.74;38.56;;
67320;Laerm;57665;51.436;5.978;2023-08-06T00:04:56;37.76;36.72;39.10;;
67320;Laerm;57665;51.436;5.978;2023-08-06T00:05:06;37.77;36.84;38.83;;
67320;Laerm;57665;51.436;5.978;2023-08-06T00:05:28;37.79;36.73;38.72;;
67320;Laerm;57665;51.436;5.978;2023-08-06T00:05:41;37.77;36.86;38.76;;
67320;Laerm;57665;51.436;5.978;2023-08-06T00:06:00;37.79;36.82;38.58;;
67320;Laerm;57665;51.436;5.978;2023-08-06T00:06:10;37.90;36.43;41.56;;
67320;Laerm;57665;51.436;5.978;2023-08-06T00:06:20;37.80;36.81;39.00;;
67320;Laerm;57665;51.436;5.978;2023-08-06T00:06:40;37.84;36.95;39.11;;
67320;Laerm;57665;51.436;5.978;2023-08-06T00:06:50;37.73;36.94;38.69;;
67320;Laerm;57665;51.436;5.978;2023-08-06T00:07:00;37.71;36.37;38.79;;
67320;Laerm;57665;51.436;5.978;2023-08-06T00:07:11;37.79;36.79;38.55;;
67320;Laerm;57665;51.436;5.978;2023-08-06T00:07:21;37.81;36.83;38.66;;
67320;Laerm;57665;51.436;5.978;2023-08-06T00:07:31;37.88;36.57;39.22;;
67320;Laerm;57665;51.436;5.978;2023-08-06T00:07:44;37.76;36.72;38.66;;
67320;Laerm;57665;51.436;5.978;2023-08-06T00:07:55;37.81;36.67;38.61;;
67320;Laerm;57665;51.436;5.978;2023-08-06T00:08:08;37.73;36.79;38.83;;
67320;Laerm;57665;51.436;5.978;2023-08-06T00:08:18;37.79;36.86;38.75;;
67320;Laerm;57665;51.436;5.978;2023-08-06T00:08:28;37.97;36.78;39.58;;
67320;Laerm;57665;51.436;5.978;2023-08-06T00:08:39;37.91;37.03;38.83;;
67320;Laerm;57665;51.436;5.978;2023-08-06T00:08:49;37.80;36.89;38.73;;
67320;Laerm;57665;51.436;5.978;2023-08-06T00:08:59;37.84;36.89;38.92;;
67320;Laerm;57665;51.436;5.978;2023-08-06T00:09:09;37.84;36.86;38.86;;
67320;Laerm;57665;51.436;5.978;2023-08-06T00:09:20;38.75;37.35;40.87;;
67320;Laerm;57665;51.436;5.978;2023-08-06T00:09:30;44.24;38.59;50.24;;
67320;Laerm;57665;51.436;5.978;2023-08-06T00:09:40;39.39;37.18;44.33;;
67320;Laerm;57665;51.436;5.978;2023-08-06T00:09:50;37.99;36.91;38.97;;
67320;Laerm;57665;51.436;5.978;2023-08-06T00:10:00;38.26;36.65;41.34;;
67320;Laerm;57665;51.436;5.978;2023-08-06T00:10:11;40.46;36.82;46.70;;
67320;Laerm;57665;51.436;5.978;2023-08-06T00:10:21;37.83;36.93;38.81;;
67320;Laerm;57665;51.436;5.978;2023-08-06T00:10:31;37.86;36.76;38.86;;
67320;Laerm;57665;51.436;5.978;2023-08-06T00:10:44;37.89;36.85;38.73;;
67320;Laerm;57665;51.436;5.978;2023-08-06T00:11:03;37.88;36.75;38.92;;
67320;Laerm;57665;51.436;5.978;2023-08-06T00:11:32;37.96;36.45;40.77;;
67320;Laerm;57665;51.436;5.978;2023-08-06T00:11:54;37.85;36.67;38.99;;
67320;Laerm;57665;51.436;5.978;2023-08-06T00:12:04;37.80;36.72;38.81;;
67320;Laerm;57665;51.436;5.978;2023-08-06T00:12:15;37.81;36.82;38.79;;
67320;Laerm;57665;51.436;5.978;2023-08-06T00:12:45;37.80;36.55;38.80;;
67320;Laerm;57665;51.436;5.978;2023-08-06T00:12:56;37.76;36.85;38.87;;
67320;Laerm;57665;51.436;5.978;2023-08-06T00:13:06;37.80;36.82;38.84;;
67320;Laerm;57665;51.436;5.978;2023-08-06T00:13:16;37.84;36.73;39.07;;
67320;Laerm;57665;51.436;5.978;2023-08-06T00:13:27;37.88;36.91;38.74;;
67320;Laerm;57665;51.436;5.978;2023-08-06T00:13:38;37.92;36.83;38.93;;
67320;Laerm;57665;51.436;5.978;2023-08-06T00:13:48;37.81;36.95;38.66;;
67320;Laerm;57665;51.436;5.978;2023-08-06T00:13:58;37.80;36.75;38.74;;
67320;Laerm;57665;51.436;5.978;2023-08-06T00:14:09;37.87;36.83;38.75;;
67320;Laerm;57665;51.436;5.978;2023-08-06T00:14:19;37.92;37.03;40.55;;
67320;Laerm;57665;51.436;5.978;2023-08-06T00:14:29;37.81;36.73;39.39;;
67320;Laerm;57665;51.436;5.978;2023-08-06T00:14:40;37.85;37.03;38.65;;
67320;Laerm;57665;51.436;5.978;2023-08-06T00:14:50;37.89;36.85;38.92;;
67320;Laerm;57665;51.436;5.978;2023-08-06T00:15:01;37.85;36.93;39.85;;
67320;Laerm;57665;51.436;5.978;2023-08-06T00:15:11;37.82;36.68;38.72;;
67320;Laerm;57665;51.436;5.978;2023-08-06T00:15:22;37.88;36.70;38.68;;
67320;Laerm;57665;51.436;5.978;2023-08-06T00:15:32;37.91;37.01;38.72;;
67320;Laerm;57665;51.436;5.978;2023-08-06T00:15:42;37.90;36.81;38.71;;
67320;Laerm;57665;51.436;5.978;2023-08-06T00:15:52;37.84;36.98;38.88;;
67320;Laerm;57665;51.436;5.978;2023-08-06T00:16:12;37.77;36.76;38.96;;
67320;Laerm;57665;51.436;5.978;2023-08-06T00:16:22;37.77;36.64;40.81;;
67320;Laerm;57665;51.436;5.978;2023-08-06T00:16:32;37.85;36.75;38.90;;
67320;Laerm;57665;51.436;5.978;2023-08-06T00:16:43;37.80;36.76;38.60;;
67320;Laerm;57665;51.436;5.978;2023-08-06T00:16:54;37.85;36.99;38.83;;
67320;Laerm;57665;51.436;5.978;2023-08-06T00:17:04;37.84;37.06;39.11;;
67320;Laerm;57665;51.436;5.978;2023-08-06T00:17:15;37.83;36.74;38.63;;
67320;Laerm;57665;51.436;5.978;2023-08-06T00:17:25;37.86;36.74;38.73;;
67320;Laerm;57665;51.436;5.978;2023-08-06T00:17:35;37.84;36.76;38.76;;
67320;Laerm;57665;51.436;5.978;2023-08-06T00:17:45;37.93;36.91;38.82;;
67320;Laerm;57665;51.436;5.978;2023-08-06T00:17:56;37.88;36.76;38.71;;
67320;Laerm;57665;51.436;5.978;2023-08-06T00:18:06;37.88;36.95;38.77;;
67320;Laerm;57665;51.436;5.978;2023-08-06T00:18:16;37.89;36.84;38.68;;
67320;Laerm;57665;51.436;5.978;2023-08-06T00:18:26;37.81;36.84;38.99;;
67320;Laerm;57665;51.436;5.978;2023-08-06T00:18:40;37.82;36.97;38.67;;
67320;Laerm;57665;51.436;5.978;2023-08-06T00:18:50;37.82;36.80;38.94;;
67320;Laerm;57665;51.436;5.978;2023-08-06T00:19:00;37.83;36.76;38.65;;
67320;Laerm;57665;51.436;5.978;2023-08-06T00:19:10;37.83;36.86;38.77;;
67320;Laerm;57665;51.436;5.978;2023-08-06T00:19:21;37.78;36.68;38.70;;
67320;Laerm;57665;51.436;5.978;2023-08-06T00:19:33;37.86;36.88;38.88;;
67320;Laerm;57665;51.436;5.978;2023-08-06T00:19:44;37.81;36.83;38.70;;
67320;Laerm;57665;51.436;5.978;2023-08-06T00:19:54;37.96;36.52;45.32;;
67320;Laerm;57665;51.436;5.978;2023-08-06T00:20:20;37.86;36.82;38.81;;
67320;Laerm;57665;51.436;5.978;2023-08-06T00:20:30;37.77;36.78;38.96;;
67320;Laerm;57665;51.436;5.978;2023-08-06T00:20:41;37.73;36.90;38.52;;
67320;Laerm;57665;51.436;5.978;2023-08-06T00:20:52;37.83;36.98;38.79;;
67320;Laerm;57665;51.436;5.978;2023-08-06T00:21:11;37.83;36.78;38.73;;
67320;Laerm;57665;51.436;5.978;2023-08-06T00:21:24;37.82;36.82;38.86;;
67320;Laerm;57665;51.436;5.978;2023-08-06T00:21:52;37.78;36.85;38.70;;
67320;Laerm;57665;51.436;5.978;2023-08-06T00:22:05;37.80;36.34;38.89;;
67320;Laerm;57665;51.436;5.978;2023-08-06T00:22:18;37.84;37.00;38.66;;
67320;Laerm;57665;51.436;5.978;2023-08-06T00:22:28;37.80;36.94;38.99;;
67320;Laerm;57665;51.436;5.978;2023-08-06T00:22:54;37.92;36.88;38.76;;
67320;Laerm;57665;51.436;5.978;2023-08-06T00:23:04;37.89;36.75;38.77;;
67320;Laerm;57665;51.436;5.978;2023-08-06T00:23:19;37.86;36.78;38.71;;
67320;Laerm;57665;51.436;5.978;2023-08-06T00:23:32;37.80;36.87;38.97;;
67320;Laerm;57665;51.436;5.978;2023-08-06T00:23:45;37.87;36.94;39.02;;
67320;Laerm;57665;51.436;5.978;2023-08-06T00:23:58;37.84;36.71;38.91;;
67320;Laerm;57665;51.436;5.978;2023-08-06T00:24:34;37.88;36.79;39.07;;
67320;Laerm;57665;51.436;5.978;2023-08-06T00:24:54;37.90;36.96;43.39;;
67320;Laerm;57665;51.436;5.978;2023-08-06T00:25:07;39.68;36.94;44.01;;
67320;Laerm;57665;51.436;5.978;2023-08-06T00:25:18;37.91;36.70;38.81;;
67320;Laerm;57665;51.436;5.978;2023-08-06T00:25:28;37.84;36.90;38.97;;
67320;Laerm;57665;51.436;5.978;2023-08-06T00:25:38;37.89;36.88;38.61;;
67320;Laerm;57665;51.436;5.978;2023-08-06T00:25:54;37.91;37.04;38.90;;
67320;Laerm;57665;51.436;5.978;2023-08-06T00:26:04;37.85;36.83;38.95;;
67320;Laerm;57665;51.436;5.978;2023-08-06T00:26:14;37.90;37.06;38.91;;
67320;Laerm;57665;51.436;5.978;2023-08-06T00:26:24;37.84;36.34;38.70;;
67320;Laerm;57665;51.436;5.978;2023-08-06T00:26:40;37.86;36.71;38.67;;
67320;Laerm;57665;51.436;5.978;2023-08-06T00:26:56;37.76;36.57;38.62;;
67320;Laerm;57665;51.436;5.978;2023-08-06T00:27:27;37.80;36.68;38.80;;
67320;Laerm;57665;51.436;5.978;2023-08-06T00:27:48;52.33;36.97;65.86;;
67320;Laerm;57665;51.436;5.978;2023-08-06T00:27:58;38.23;36.91;41.09;;
67320;Laerm;57665;51.436;5.978;2023-08-06T00:28:08;37.97;37.07;38.99;;
67320;Laerm;57665;51.436;5.978;2023-08-06T00:28:21;37.91;36.70;38.94;;
67320;Laerm;57665;51.436;5.978;2023-08-06T00:28:32;38.09;37.09;39.08;;
67320;Laerm;57665;51.436;5.978;2023-08-06T00:28:52;38.14;37.08;39.24;;
67320;Laerm;57665;51.436;5.978;2023-08-06T00:29:02;38.04;36.87;39.17;;
67320;Laerm;57665;51.436;5.978;2023-08-06T00:29:15;38.07;37.01;39.03;;
67320;Laerm;57665;51.436;5.978;2023-08-06T00:29:25;38.03;36.98;39.10;;
67320;Laerm;57665;51.436;5.978;2023-08-06T00:29:36;38.04;37.12;39.05;;
67320;Laerm;57665;51.436;5.978;2023-08-06T00:29:58;38.07;36.68;39.32;;
67320;Laerm;57665;51.436;5.978;2023-08-06T00:30:13;37.96;37.07;38.92;;
67320;Laerm;57665;51.436;5.978;2023-08-06T00:30:26;38.00;37.10;38.90;;
67320;Laerm;57665;51.436;5.978;2023-08-06T00:30:45;37.97;37.05;38.97;;
67320;Laerm;57665;51.436;5.978;2023-08-06T00:30:55;37.96;37.04;39.00;;
67320;Laerm;57665;51.436;5.978;2023-08-06T00:32:00;38.04;36.69;39.78;;
67320;Laerm;57665;51.436;5.978;2023-08-06T00:32:10;37.93;36.92;38.78;;
67320;Laerm;57665;51.436;5.978;2023-08-06T00:32:20;38.01;37.03;39.11;;
67320;Laerm;57665;51.436;5.978;2023-08-06T00:32:31;38.00;36.96;38.83;;
67320;Laerm;57665;51.436;5.978;2023-08-06T00:32:43;38.00;36.91;38.91;;
67320;Laerm;57665;51.436;5.978;2023-08-06T00:33:02;38.91;37.24;42.76;;
67320;Laerm;57665;51.436;5.978;2023-08-06T00:33:16;37.93;36.84;38.67;;
67320;Laerm;57665;51.436;5.978;2023-08-06T00:33:26;38.03;37.00;38.97;;
67320;Laerm;57665;51.436;5.978;2023-08-06T00:34:02;37.99;36.77;38.98;;
67320;Laerm;57665;51.436;5.978;2023-08-06T00:34:12;38.03;37.11;38.88;;
67320;Laerm;57665;51.436;5.978;2023-08-06T00:34:28;38.07;37.19;38.98;;
67320;Laerm;57665;51.436;5.978;2023-08-06T00:34:50;38.08;37.18;38.94;;
67320;Laerm;57665;51.436;5.978;2023-08-06T00:35:01;38.07;37.07;39.25;;
67320;Laerm;57665;51.436;5.978;2023-08-06T00:35:11;37.92;37.01;38.76;;
67320;Laerm;57665;51.436;5.978;2023-08-06T00:35:55;38.01;36.75;38.95;;
67320;Laerm;57665;51.436;5.978;2023-08-06T00:36:05;37.98;37.00;39.06;;
67320;Laerm;57665;51.436;5.978;2023-08-06T00:36:16;37.92;37.02;38.76;;
67320;Laerm;57665;51.436;5.978;2023-08-06T00:36:37;37.98;37.18;38.86;;
67320;Laerm;57665;51.436;5.978;2023-08-06T00:36:47;38.01;36.96;39.01;;
67320;Laerm;57665;51.436;5.978;2023-08-06T00:37:18;38.03;37.03;39.76;;
67320;Laerm;57665;51.436;5.978;2023-08-06T00:37:36;38.03;36.92;38.78;;
67320;Laerm;57665;51.436;5.978;2023-08-06T00:37:47;38.00;36.97;39.01;;
67320;Laerm;57665;51.436;5.978;2023-08-06T00:37:57;38.10;37.15;39.18;;
67320;Laerm;57665;51.436;5.978;2023-08-06T00:38:23;38.03;36.99;39.03;;
67320;Laerm;57665;51.436;5.978;2023-08-06T00:38:33;37.97;36.97;38.76;;
67320;Laerm;57665;51.436;5.978;2023-08-06T00:38:43;38.01;37.16;38.92;;
67320;Laerm;57665;51.436;5.978;2023-08-06T00:38:53;38.06;37.08;39.50;;
67320;Laerm;57665;51.436;5.978;2023-08-06T00:39:14;38.04;37.03;39.15;;
67320;Laerm;57665;51.436;5.978;2023-08-06T00:39:24;37.96;36.65;38.92;;
67320;Laerm;57665;51.436;5.978;2023-08-06T00:39:35;37.93;37.00;38.93;;
67320;Laerm;57665;51.436;5.978;2023-08-06T00:39:54;37.99;36.90;39.00;;
67320;Laerm;57665;51.436;5.978;2023-08-06T00:40:04;38.05;36.99;38.94;;
67320;Laerm;57665;51.436;5.978;2023-08-06T00:40:15;37.98;36.96;38.70;;
67320;Laerm;57665;51.436;5.978;2023-08-06T00:40:25;37.93;37.01;38.67;;
67320;Laerm;57665;51.436;5.978;2023-08-06T00:40:41;38.00;37.09;38.87;;
67320;Laerm;57665;51.436;5.978;2023-08-06T00:40:51;38.06;36.84;39.12;;
67320;Laerm;57665;51.436;5.978;2023-08-06T00:41:03;38.02;37.08;39.08;;
67320;Laerm;57665;51.436;5.978;2023-08-06T00:41:17;38.02;36.95;38.88;;
67320;Laerm;57665;51.436;5.978;2023-08-06T00:41:27;37.96;37.02;38.84;;
67320;Laerm;57665;51.436;5.978;2023-08-06T00:41:37;38.04;36.98;38.96;;
67320;Laerm;57665;51.436;5.978;2023-08-06T00:41:47;38.02;37.01;38.98;;
67320;Laerm;57665;51.436;5.978;2023-08-06T00:41:58;38.00;37.03;38.86;;
67320;Laerm;57665;51.436;5.978;2023-08-06T00:42:08;37.99;36.96;39.10;;
67320;Laerm;57665;51.436;5.978;2023-08-06T00:42:21;37.97;37.03;38.95;;
67320;Laerm;57665;51.436;5.978;2023-08-06T00:42:32;37.98;36.96;38.70;;
67320;Laerm;57665;51.436;5.978;2023-08-06T00:42:42;37.93;37.11;38.74;;
67320;Laerm;57665;51.436;5.978;2023-08-06T00:42:58;38.01;37.19;38.85;;
67320;Laerm;57665;51.436;5.978;2023-08-06T00:43:08;37.97;37.08;38.86;;
67320;Laerm;57665;51.436;5.978;2023-08-06T00:43:18;38.00;36.89;38.94;;
67320;Laerm;57665;51.436;5.978;2023-08-06T00:43:28;38.02;37.27;38.76;;
67320;Laerm;57665;51.436;5.978;2023-08-06T00:43:39;37.98;37.19;38.73;;
67320;Laerm;57665;51.436;5.978;2023-08-06T00:43:49;38.04;37.12;39.03;;
67320;Laerm;57665;51.436;5.978;2023-08-06T00:43:59;38.02;37.04;38.78;;
67320;Laerm;57665;51.436;5.978;2023-08-06T00:44:09;37.93;37.02;38.87;;
67320;Laerm;57665;51.436;5.978;2023-08-06T00:44:20;38.01;36.95;38.72;;
67320;Laerm;57665;51.436;5.978;2023-08-06T00:44:30;37.96;37.01;39.17;;
67320;Laerm;57665;51.436;5.978;2023-08-06T00:44:40;37.97;36.48;38.79;;
67320;Laerm;57665;51.436;5.978;2023-08-06T00:44:50;37.94;37.10;38.90;;
67320;Laerm;57665;51.436;5.978;2023-08-06T00:45:01;37.97;36.95;38.80;;
67320;Laerm;57665;51.436;5.978;2023-08-06T00:45:11;37.91;36.94;38.77;;
67320;Laerm;57665;51.436;5.978;2023-08-06T00:45:21;37.98;37.13;38.80;;
67320;Laerm;57665;51.436;5.978;2023-08-06T00:45:33;38.00;37.11;38.92;;
67320;Laerm;57665;51.436;5.978;2023-08-06T00:45:53;38.02;36.84;39.13;;
67320;Laerm;57665;51.436;5.978;2023-08-06T00:46:04;37.98;36.53;39.00;;
67320;Laerm;57665;51.436;5.978;2023-08-06T00:46:14;37.89;36.89;38.83;;
67320;Laerm;57665;51.436;5.978;2023-08-06T00:46:24;37.87;36.89;39.00;;
67320;Laerm;57665;51.436;5.978;2023-08-06T00:46:35;37.91;37.06;39.49;;
67320;Laerm;57665;51.436;5.978;2023-08-06T00:46:48;37.88;36.98;38.93;;
67320;Laerm;57665;51.436;5.978;2023-08-06T00:46:58;37.97;37.02;38.95;;
67320;Laerm;57665;51.436;5.978;2023-08-06T00:47:18;37.93;37.04;39.16;;
67320;Laerm;57665;51.436;5.978;2023-08-06T00:47:28;37.94;36.69;39.05;;
67320;Laerm;57665;51.436;5.978;2023-08-06T00:47:44;38.01;37.11;39.01;;
67320;Laerm;57665;51.436;5.978;2023-08-06T00:47:56;37.95;37.03;39.46;;
67320;Laerm;57665;51.436;5.978;2023-08-06T00:48:06;37.94;36.86;38.93;;
67320;Laerm;57665;51.436;5.978;2023-08-06T00:48:17;37.97;36.97;39.14;;
67320;Laerm;57665;51.436;5.978;2023-08-06T00:48:32;37.91;36.83;39.07;;
67320;Laerm;57665;51.436;5.978;2023-08-06T00:48:43;37.89;36.89;38.82;;
67320;Laerm;57665;51.436;5.978;2023-08-06T00:48:59;37.90;36.71;39.70;;
67320;Laerm;57665;51.436;5.978;2023-08-06T00:49:09;37.98;36.81;40.92;;
67320;Laerm;57665;51.436;5.978;2023-08-06T00:49:37;37.93;36.94;38.65;;
67320;Laerm;57665;51.436;5.978;2023-08-06T00:49:48;37.97;36.94;39.01;;
67320;Laerm;57665;51.436;5.978;2023-08-06T00:49:59;37.92;37.12;38.86;;
67320;Laerm;57665;51.436;5.978;2023-08-06T00:50:18;37.94;36.91;39.03;;
67320;Laerm;57665;51.436;5.978;2023-08-06T00:50:34;37.96;36.90;38.77;;
67320;Laerm;57665;51.436;5.978;2023-08-06T00:50:44;37.93;36.81;38.88;;
67320;Laerm;57665;51.436;5.978;2023-08-06T00:50:54;37.87;36.84;39.35;;
67320;Laerm;57665;51.436;5.978;2023-08-06T00:51:05;37.93;36.98;38.90;;
67320;Laerm;57665;51.436;5.978;2023-08-06T00:51:15;37.93;36.96;38.77;;
67320;Laerm;57665;51.436;5.978;2023-08-06T00:51:25;37.99;36.78;38.87;;
67320;Laerm;57665;51.436;5.978;2023-08-06T00:51:36;38.07;37.22;38.95;;
67320;Laerm;57665;51.436;5.978;2023-08-06T00:51:47;37.98;36.94;39.04;;
67320;Laerm;57665;51.436;5.978;2023-08-06T00:51:57;37.95;37.00;38.75;;
67320;Laerm;57665;51.436;5.978;2023-08-06T00:52:08;38.05;36.55;39.36;;
67320;Laerm;57665;51.436;5.978;2023-08-06T00:52:18;39.06;37.29;40.92;;
67320;Laerm;57665;51.436;5.978;2023-08-06T00:52:28;39.80;38.05;42.89;;
67320;Laerm;57665;51.436;5.978;2023-08-06T00:52:39;43.32;40.51;48.38;;
67320;Laerm;57665;51.436;5.978;2023-08-06T00:52:49;43.61;41.38;49.34;;
67320;Laerm;57665;51.436;5.978;2023-08-06T00:53:00;42.67;41.00;45.69;;
67320;Laerm;57665;51.436;5.978;2023-08-06T00:53:11;43.85;41.65;51.41;;
67320;Laerm;57665;51.436;5.978;2023-08-06T00:53:21;42.84;41.12;45.49;;
67320;Laerm;57665;51.436;5.978;2023-08-06T00:53:32;43.06;41.42;50.25;;
67320;Laerm;57665;51.436;5.978;2023-08-06T00:53:42;42.87;41.73;47.79;;
67320;Laerm;57665;51.436;5.978;2023-08-06T00:53:52;42.96;41.48;47.30;;
67320;Laerm;57665;51.436;5.978;2023-08-06T00:54:02;42.72;41.53;46.19;;
67320;Laerm;57665;51.436;5.978;2023-08-06T00:54:13;42.77;41.58;44.03;;
67320;Laerm;57665;51.436;5.978;2023-08-06T00:54:24;42.86;41.48;45.20;;
67320;Laerm;57665;51.436;5.978;2023-08-06T00:54:35;42.74;41.56;44.08;;
67320;Laerm;57665;51.436;5.978;2023-08-06T00:54:45;42.72;41.53;44.17;;
67320;Laerm;57665;51.436;5.978;2023-08-06T00:54:56;43.44;41.85;49.14;;
67320;Laerm;57665;51.436;5.978;2023-08-06T00:55:06;43.22;41.70;48.21;;
67320;Laerm;57665;51.436;5.978;2023-08-06T00:55:17;43.02;41.50;45.22;;
67320;Laerm;57665;51.436;5.978;2023-08-06T00:55:27;42.68;41.19;43.87;;
67320;Laerm;57665;51.436;5.978;2023-08-06T00:55:38;42.68;41.53;43.92;;
67320;Laerm;57665;51.436;5.978;2023-08-06T00:55:48;43.12;41.29;48.78;;
67320;Laerm;57665;51.436;5.978;2023-08-06T00:55:58;42.70;41.35;44.07;;
67320;Laerm;57665;51.436;5.978;2023-08-06T00:56:09;42.63;41.39;43.89;;
67320;Laerm;57665;51.436;5.978;2023-08-06T00:56:19;42.77;41.26;44.24;;
67320;Laerm;57665;51.436;5.978;2023-08-06T00:56:30;42.95;41.77;44.43;;
67320;Laerm;57665;51.436;5.978;2023-08-06T00:56:43;42.98;41.50;44.64;;
67320;Laerm;57665;51.436;5.978;2023-08-06T00:56:56;42.97;41.29;48.01;;
67320;Laerm;57665;51.436;5.978;2023-08-06T00:57:07;42.96;41.55;44.73;;
67320;Laerm;57665;51.436;5.978;2023-08-06T00:57:24;43.01;41.53;44.31;;
67320;Laerm;57665;51.436;5.978;2023-08-06T00:57:36;43.01;41.47;45.54;;
67320;Laerm;57665;51.436;5.978;2023-08-06T00:57:46;42.95;41.22;44.67;;
67320;Laerm;57665;51.436;5.978;2023-08-06T00:58:06;42.83;41.05;48.03;;
67320;Laerm;57665;51.436;5.978;2023-08-06T00:58:16;42.77;41.55;44.32;;
67320;Laerm;57665;51.436;5.978;2023-08-06T00:58:32;42.78;41.23;44.37;;
67320;Laerm;57665;51.436;5.978;2023-08-06T00:58:43;43.00;41.71;45.64;;
67320;Laerm;57665;51.436;5.978;2023-08-06T00:59:15;42.72;41.43;47.19;;
67320;Laerm;57665;51.436;5.978;2023-08-06T00:59:25;42.84;41.19;44.25;;
67320;Laerm;57665;51.436;5.978;2023-08-06T00:59:35;42.59;41.35;43.93;;
67320;Laerm;57665;51.436;5.978;2023-08-06T00:59:45;42.71;41.26;44.15;;
67320;Laerm;57665;51.436;5.978;2023-08-06T00:59:56;42.93;41.29;47.57;;
67320;Laerm;57665;51.436;5.978;2023-08-06T01:00:06;42.96;41.69;45.31;;
67320;Laerm;57665;51.436;5.978;2023-08-06T01:00:17;43.06;41.64;45.57;;
67320;Laerm;57665;51.436;5.978;2023-08-06T01:00:27;42.90;41.60;45.11;;
67320;Laerm;57665;51.436;5.978;2023-08-06T01:00:38;42.78;41.45;44.19;;
67320;Laerm;57665;51.436;5.978;2023-08-06T01:00:48;42.73;41.35;45.08;;
67320;Laerm;57665;51.436;5.978;2023-08-06T01:00:58;42.76;41.29;44.80;;
67320;Laerm;57665;51.436;5.978;2023-08-06T01:01:09;43.03;41.55;44.67;;
67320;Laerm;57665;51.436;5.978;2023-08-06T01:01:19;43.20;41.89;44.61;;
67320;Laerm;57665;51.436;5.978;2023-08-06T01:01:30;43.08;41.24;45.47;;
67320;Laerm;57665;51.436;5.978;2023-08-06T01:01:40;42.91;41.70;44.52;;
67320;Laerm;57665;51.436;5.978;2023-08-06T01:01:50;43.00;40.82;44.34;;
67320;Laerm;57665;51.436;5.978;2023-08-06T01:02:01;43.05;41.63;46.98;;
67320;Laerm;57665;51.436;5.978;2023-08-06T01:02:12;42.45;40.98;43.70;;
67320;Laerm;57665;51.436;5.978;2023-08-06T01:02:22;42.67;41.31;44.17;;
67320;Laerm;57665;51.436;5.978;2023-08-06T01:02:32;42.78;41.56;45.52;;
67320;Laerm;57665;51.436;5.978;2023-08-06T01:02:42;42.78;41.56;44.14;;
67320;Laerm;57665;51.436;5.978;2023-08-06T01:02:53;42.97;41.45;44.96;;
67320;Laerm;57665;51.436;5.978;2023-08-06T01:03:03;42.84;41.36;46.24;;
67320;Laerm;57665;51.436;5.978;2023-08-06T01:03:16;42.90;41.16;44.24;;
67320;Laerm;57665;51.436;5.978;2023-08-06T01:03:27;42.83;41.14;44.13;;
67320;Laerm;57665;51.436;5.978;2023-08-06T01:03:43;42.66;41.27;44.51;;
67320;Laerm;57665;51.436;5.978;2023-08-06T01:03:53;42.74;41.10;44.30;;
67320;Laerm;57665;51.436;5.978;2023-08-06T01:04:04;42.75;41.26;45.59;;
67320;Laerm;57665;51.436;5.978;2023-08-06T01:04:14;42.64;41.44;44.58;;
67320;Laerm;57665;51.436;5.978;2023-08-06T01:04:25;42.81;41.40;44.16;;
67320;Laerm;57665;51.436;5.978;2023-08-06T01:04:42;42.92;41.43;44.48;;
67320;Laerm;57665;51.436;5.978;2023-08-06T01:04:53;43.07;41.70;45.65;;
67320;Laerm;57665;51.436;5.978;2023-08-06T01:05:24;42.92;41.59;44.30;;
67320;Laerm;57665;51.436;5.978;2023-08-06T01:05:34;43.13;41.57;48.06;;
67320;Laerm;57665;51.436;5.978;2023-08-06T01:06:19;42.78;41.06;45.38;;
67320;Laerm;57665;51.436;5.978;2023-08-06T01:06:41;42.86;41.39;47.78;;
67320;Laerm;57665;51.436;5.978;2023-08-06T01:07:02;43.05;41.56;57.21;;
67320;Laerm;57665;51.436;5.978;2023-08-06T01:08:04;43.00;41.43;44.89;;
67320;Laerm;57665;51.436;5.978;2023-08-06T01:08:26;42.87;41.06;53.56;;
67320;Laerm;57665;51.436;5.978;2023-08-06T01:08:44;43.29;41.65;51.61;;
67320;Laerm;57665;51.436;5.978;2023-08-06T01:09:00;43.06;41.38;45.06;;
67320;Laerm;57665;51.436;5.978;2023-08-06T01:09:31;43.38;41.82;45.43;;
67320;Laerm;57665;51.436;5.978;2023-08-06T01:10:40;43.05;41.29;44.91;;
67320;Laerm;57665;51.436;5.978;2023-08-06T01:11:27;42.92;41.16;48.59;;
67320;Laerm;57665;51.436;5.978;2023-08-06T01:11:44;43.06;41.40;50.35;;
67320;Laerm;57665;51.436;5.978;2023-08-06T01:12:01;43.20;41.57;49.84;;
67320;Laerm;57665;51.436;5.978;2023-08-06T01:13:05;43.00;41.14;52.50;;
67320;Laerm;57665;51.436;5.978;2023-08-06T01:13:47;42.95;41.33;49.24;;
67320;Laerm;57665;51.436;5.978;2023-08-06T01:14:02;42.99;41.60;47.83;;
67320;Laerm;57665;51.436;5.978;2023-08-06T01:14:25;42.94;41.58;47.70;;
67320;Laerm;57665;51.436;5.978;2023-08-06T01:14:48;43.24;41.28;51.57;;
67320;Laerm;57665;51.436;5.978;2023-08-06T01:15:18;42.86;41.19;46.50;;
67320;Laerm;57665;51.436;5.978;2023-08-06T01:15:31;43.09;40.96;48.59;;
67320;Laerm;57665;51.436;5.978;2023-08-06T01:15:46;43.52;41.31;49.08;;
67320;Laerm;57665;51.436;5.978;2023-08-06T01:15:58;42.75;40.96;47.29;;
67320;Laerm;57665;51.436;5.978;2023-08-06T01:16:09;42.85;41.41;48.60;;
67320;Laerm;57665;51.436;5.978;2023-08-06T01:16:21;43.16;41.30;46.23;;
67320;Laerm;57665;51.436;5.978;2023-08-06T01:16:33;42.56;41.23;46.49;;
67320;Laerm;57665;51.436;5.978;2023-08-06T01:16:44;42.59;41.18;46.77;;
67320;Laerm;57665;51.436;5.978;2023-08-06T01:16:55;45.02;41.52;51.34;;
67320;Laerm;57665;51.436;5.978;2023-08-06T01:17:06;54.14;46.59;58.18;;
67320;Laerm;57665;51.436;5.978;2023-08-06T01:17:17;48.62;43.78;54.38;;